Time;durP1;ratioP1;P1;durP2;ratioP2;P2;SDS_P1;SDS_P2;PMS_P1;PMS_P2;Temp;Humidity;BMP_temperature;BMP_pressure;BME280_temperature;BME280_humidity;BME280_pressure;Samples;Min_cycle;Max_cycle;Signal;HPM_P1;HPM_P2
2023/03/14 00:01:33;;;;;;;;;;;;;;;5.55;nan;96945.72;5022781;28;20351;-59
2023/03/14 00:03:59;;;;;;;;;;;;;;;5.58;nan;96936.28;5025156;28;20228;-59
2023/03/14 00:06:25;;;;;;;;;;;;;;;5.51;nan;96929.72;5025035;28;20054;-59
2023/03/14 00:08:51;;;;;;;;;;;;;;;5.32;nan;96911.56;5024970;28;20013;-60
2023/03/14 00:11:18;;;;;;;;;;;;;;;5.36;nan;96914.84;5031277;28;19925;-59
2023/03/14 00:13:48;;;;;;;;;;;;;;;5.34;nan;96916.59;5029575;28;19928;-59
2023/03/14 00:16:14;;;;;;;;;;;;;;;5.18;nan;96910.25;5032501;28;19921;-58
2023/03/14 00:18:39;;;;;;;;;;;;;;;5.20;nan;96904.25;5034067;28;19925;-60
2023/03/14 00:21:06;;;;;;;;;;;;;;;5.17;nan;96901.81;5033580;28;20525;-60
2023/03/14 00:23:32;;;;;;;;;;;;;;;5.02;nan;96902.16;5031774;28;19924;-59
2023/03/14 00:26:09;;;;;;;;;;;;;;;4.91;nan;96906.69;5030213;28;20047;-60
2023/03/14 00:28:34;;;;;;;;;;;;;;;4.87;nan;96892.41;5031510;28;19925;-60
2023/03/14 00:31:02;;;;;;;;;;;;;;;4.83;nan;96888.28;5033048;28;20430;-60
2023/03/14 00:33:28;;;;;;;;;;;;;;;4.80;nan;96891.69;5031910;28;19928;-60
2023/03/14 00:35:58;;;;;;;;;;;;;;;4.72;nan;96892.75;5031792;28;20352;-59
2023/03/14 00:38:24;;;;;;;;;;;;;;;4.67;nan;96890.31;5032501;28;20250;-59
2023/03/14 00:40:49;;;;;;;;;;;;;;;4.60;nan;96891.34;5031493;28;19921;-59
2023/03/14 00:43:16;;;;;;;;;;;;;;;4.67;nan;96890.31;5028161;28;19940;-60
2023/03/14 00:45:41;;;;;;;;;;;;;;;4.54;nan;96887.25;5032548;28;19921;-60
2023/03/14 00:48:07;;;;;;;;;;;;;;;4.45;nan;96889.19;5029688;28;20390;-60
2023/03/14 00:50:32;;;;;;;;;;;;;;;4.40;nan;96885.91;5029936;28;19936;-60
2023/03/14 00:52:58;;;;;;;;;;;;;;;4.37;nan;96880.91;5036141;28;19935;-60
2023/03/14 00:55:24;;;;;;;;;;;;;;;4.31;nan;96886.13;5031091;28;20346;-60
2023/03/14 00:57:49;;;;;;;;;;;;;;;4.38;nan;96883.41;5031247;28;20319;-62
2023/03/14 01:00:15;;;;;;;;;;;;;;;4.27;nan;96867.59;5037766;28;20176;-60
2023/03/14 01:02:41;;;;;;;;;;;;;;;4.30;nan;96862.44;5030064;28;20014;-60
2023/03/14 01:05:07;;;;;;;;;;;;;;;4.37;nan;96863.97;5030769;28;20355;-60
2023/03/14 01:07:32;;;;;;;;;;;;;;;4.29;nan;96860.78;5032373;28;20295;-61
2023/03/14 01:09:58;;;;;;;;;;;;;;;4.27;nan;96870.13;5030246;28;20439;-61
2023/03/14 01:12:23;;;;;;;;;;;;;;;4.35;nan;96865.72;5028990;28;20052;-60
2023/03/14 01:14:49;;;;;;;;;;;;;;;4.35;nan;96864.88;5030724;28;20396;-60
2023/03/14 01:17:14;;;;;;;;;;;;;;;4.23;nan;96852.47;5027428;28;20490;-59
2023/03/14 01:19:40;;;;;;;;;;;;;;;4.26;nan;96855.78;5031518;28;19929;-60
2023/03/14 01:22:08;;;;;;;;;;;;;;;4.19;nan;96843.28;5034910;28;20863;-59
2023/03/14 01:24:36;;;;;;;;;;;;;;;4.15;nan;96855.19;5038087;28;19932;-60
2023/03/14 01:27:01;;;;;;;;;;;;;;;4.05;nan;96856.25;5030996;28;20201;-59
2023/03/14 01:29:27;;;;;;;;;;;;;;;3.96;nan;96836.16;5030120;28;20393;-60
2023/03/14 01:31:53;;;;;;;;;;;;;;;4.02;nan;96844.50;5028968;28;19921;-60
2023/03/14 01:34:19;;;;;;;;;;;;;;;3.98;nan;96836.97;5038491;28;19943;-59
2023/03/14 01:36:45;;;;;;;;;;;;;;;3.81;nan;96833.97;5031270;28;20400;-60
2023/03/14 01:39:12;;;;;;;;;;;;;;;3.64;nan;96831.81;5039011;28;19924;-59
2023/03/14 01:41:38;;;;;;;;;;;;;;;3.59;nan;96836.13;5035562;28;20264;-60
2023/03/14 01:44:04;;;;;;;;;;;;;;;3.61;nan;96835.22;5038838;28;19952;-60
2023/03/14 01:46:30;;;;;;;;;;;;;;;3.52;nan;96830.31;5041370;28;20022;-60
2023/03/14 01:48:56;;;;;;;;;;;;;;;3.43;nan;96830.53;5027601;28;20440;-61
2023/03/14 01:51:29;;;;;;;;;;;;;;;3.46;nan;96834.69;5037573;28;20008;-60
2023/03/14 01:54:16;;;;;;;;;;;;;;;3.53;nan;96846.38;5033234;28;20033;-60
2023/03/14 01:56:43;;;;;;;;;;;;;;;3.47;nan;96844.81;5043745;28;20048;-60
2023/03/14 01:59:10;;;;;;;;;;;;;;;3.41;nan;96846.63;5038704;28;19979;-60
2023/03/14 02:01:37;;;;;;;;;;;;;;;3.31;nan;96848.47;5044978;28;19979;-60
2023/03/14 02:04:04;;;;;;;;;;;;;;;3.40;nan;96829.75;5028754;28;19921;-61
2023/03/14 02:06:35;;;;;;;;;;;;;;;3.68;nan;96828.34;5029090;28;19928;-60
2023/03/14 02:09:01;;;;;;;;;;;;;;;3.62;nan;96808.19;5029297;28;20007;-60
2023/03/14 02:11:30;;;;;;;;;;;;;;;3.52;nan;96820.19;5037798;28;19920;-61
2023/03/14 02:14:04;;;;;;;;;;;;;;;3.56;nan;96829.44;5034003;28;19948;-60
2023/03/14 02:16:55;;;;;;;;;;;;;;;3.63;nan;96825.91;5028628;28;19978;-60
2023/03/14 02:19:53;;;;;;;;;;;;;;;3.66;nan;96835.13;5030430;28;20494;-61
2023/03/14 02:22:29;;;;;;;;;;;;;;;3.63;nan;96833.50;5032523;28;20466;-60
2023/03/14 02:25:06;;;;;;;;;;;;;;;3.68;nan;96839.31;5024468;28;20445;-60
2023/03/14 02:27:32;;;;;;;;;;;;;;;3.65;nan;96830.91;5028188;28;19925;-60
2023/03/14 02:30:03;;;;;;;;;;;;;;;3.69;nan;96838.41;5030996;28;19950;-59
2023/03/14 02:32:30;;;;;;;;;;;;;;;3.98;nan;96845.44;5037362;28;19921;-60
2023/03/14 02:34:57;;;;;;;;;;;;;;;4.14;nan;96868.72;5025863;28;19929;-60
2023/03/14 02:37:26;;;;;;;;;;;;;;;4.32;nan;96860.72;5035084;28;19920;-58
2023/03/14 02:39:52;;;;;;;;;;;;;;;4.32;nan;96859.88;5029093;28;20267;-59
2023/03/14 02:42:18;;;;;;;;;;;;;;;4.25;nan;96871.84;5033313;28;19920;-59
2023/03/14 02:44:59;;;;;;;;;;;;;;;4.14;nan;96868.72;5038070;28;19924;-60
2023/03/14 02:47:27;;;;;;;;;;;;;;;4.03;nan;96883.34;5031223;28;19967;-61
2023/03/14 02:49:56;;;;;;;;;;;;;;;4.04;nan;96911.19;5044276;28;20070;-61
2023/03/14 02:52:22;;;;;;;;;;;;;;;4.24;nan;96920.94;5028261;28;20232;-60
2023/03/14 02:54:47;;;;;;;;;;;;;;;4.37;nan;96937.53;5027861;28;19953;-60
2023/03/14 02:57:13;;;;;;;;;;;;;;;4.28;nan;96930.16;5035324;28;19924;-60
2023/03/14 02:59:38;;;;;;;;;;;;;;;4.27;nan;96910.72;5036691;28;20391;-59
2023/03/14 03:02:12;;;;;;;;;;;;;;;4.23;nan;96921.78;5036328;28;20031;-59
2023/03/14 03:04:38;;;;;;;;;;;;;;;4.35;nan;96929.13;5028073;28;19924;-60
2023/03/14 03:07:03;;;;;;;;;;;;;;;4.34;nan;96937.59;5036133;28;19986;-60
2023/03/14 03:09:29;;;;;;;;;;;;;;;4.47;nan;96926.31;5044133;28;19935;-60
2023/03/14 03:11:54;;;;;;;;;;;;;;;4.44;nan;96928.94;5029837;28;19925;-60
2023/03/14 03:14:22;;;;;;;;;;;;;;;4.39;nan;96945.97;5030383;28;19921;-59
2023/03/14 03:16:48;;;;;;;;;;;;;;;4.34;nan;96950.28;5036086;28;20524;-60
2023/03/14 03:19:15;;;;;;;;;;;;;;;4.33;nan;96958.75;5032488;28;19941;-60
2023/03/14 03:21:41;;;;;;;;;;;;;;;4.33;nan;96956.22;5028088;28;19959;-61
2023/03/14 03:24:07;;;;;;;;;;;;;;;4.40;nan;96973.00;5027723;28;20372;-59
2023/03/14 03:26:36;;;;;;;;;;;;;;;4.54;nan;96960.81;5032639;28;19921;-57
2023/03/14 03:29:04;;;;;;;;;;;;;;;4.59;nan;96970.88;5032323;28;20439;-58
2023/03/14 03:31:29;;;;;;;;;;;;;;;4.73;nan;96973.13;5028763;28;19925;-58
2023/03/14 03:33:56;;;;;;;;;;;;;;;4.77;nan;96959.50;5035826;28;20245;-58
2023/03/14 03:36:23;;;;;;;;;;;;;;;4.71;nan;96959.66;5037564;28;19921;-58
2023/03/14 03:38:49;;;;;;;;;;;;;;;4.69;nan;96958.81;5028405;28;20029;-58
2023/03/14 03:41:14;;;;;;;;;;;;;;;4.81;nan;96963.63;5037702;28;20551;-58
2023/03/14 03:43:40;;;;;;;;;;;;;;;4.91;nan;96954.94;5029588;28;19921;-59
2023/03/14 03:46:08;;;;;;;;;;;;;;;4.95;nan;96947.22;5040852;28;19932;-58
2023/03/14 03:48:35;;;;;;;;;;;;;;;4.89;nan;96949.88;5034671;28;19921;-58
2023/03/14 03:51:02;;;;;;;;;;;;;;;4.90;nan;96943.09;5034423;28;19928;-57
2023/03/14 03:53:28;;;;;;;;;;;;;;;4.84;nan;96943.22;5020655;28;19925;-58
2023/03/14 03:55:54;;;;;;;;;;;;;;;4.80;nan;96937.41;5036719;28;20443;-59
2023/03/14 03:58:19;;;;;;;;;;;;;;;4.78;nan;96941.69;5037108;28;19924;-58
2023/03/14 04:00:44;;;;;;;;;;;;;;;4.68;nan;96945.31;5036287;28;19931;-58
2023/03/14 04:03:10;;;;;;;;;;;;;;;4.59;nan;96946.34;5035993;28;19925;-58
2023/03/14 04:05:36;;;;;;;;;;;;;;;4.70;nan;96952.88;5036851;28;19972;-58
2023/03/14 04:08:07;;;;;;;;;;;;;;;4.69;nan;96952.06;5032608;28;19928;-59
2023/03/14 04:10:35;;;;;;;;;;;;;;;4.59;nan;96970.88;5031972;28;20222;-59
2023/03/14 04:13:15;;;;;;;;;;;;;;;4.56;nan;96979.41;5031568;28;19935;-58
2023/03/14 04:15:42;;;;;;;;;;;;;;;4.55;nan;96992.97;5031585;28;20474;-58
2023/03/14 04:18:14;;;;;;;;;;;;;;;4.55;nan;97003.09;5034055;28;20463;-58
2023/03/14 04:20:42;;;;;;;;;;;;;;;4.57;nan;97005.63;5034273;28;19925;-54
2023/03/14 04:23:09;;;;;;;;;;;;;;;4.64;nan;97011.38;5040790;28;19921;-59
2023/03/14 04:25:34;;;;;;;;;;;;;;;4.75;nan;97017.09;5035197;28;20090;-58
2023/03/14 04:28:03;;;;;;;;;;;;;;;5.10;nan;97024.72;5040499;28;19940;-59
2023/03/14 04:30:30;;;;;;;;;;;;;;;5.11;nan;97017.94;5046718;28;20434;-58
2023/03/14 04:32:58;;;;;;;;;;;;;;;4.92;nan;97033.59;5034195;28;19927;-58
2023/03/14 04:35:25;;;;;;;;;;;;;;;4.92;nan;97037.84;5036079;28;20287;-59
2023/03/14 04:37:55;;;;;;;;;;;;;;;5.04;nan;97028.25;5035281;28;20071;-58
2023/03/14 04:40:22;;;;;;;;;;;;;;;4.90;nan;97011.66;5037861;28;19951;-59
2023/03/14 04:42:50;;;;;;;;;;;;;;;4.80;nan;97002.56;5037228;28;20273;-58
2023/03/14 04:45:16;;;;;;;;;;;;;;;4.75;nan;97001.84;5038672;28;20284;-58
2023/03/14 04:47:43;;;;;;;;;;;;;;;4.67;nan;97006.28;5045364;28;20295;-60
2023/03/14 04:50:12;;;;;;;;;;;;;;;4.70;nan;97024.81;5029419;28;20010;-60
2023/03/14 04:52:37;;;;;;;;;;;;;;;4.80;nan;97031.31;5035767;28;20120;-60
2023/03/14 04:55:03;;;;;;;;;;;;;;;4.86;nan;97035.44;5037439;28;20467;-59
2023/03/14 04:57:29;;;;;;;;;;;;;;;4.68;nan;97021.44;5033003;28;19986;-60
2023/03/14 04:59:54;;;;;;;;;;;;;;;4.64;nan;97019.84;5030996;28;19931;-59
2023/03/14 05:02:40;;;;;;;;;;;;;;;4.51;nan;97001.50;5029172;28;19970;-59
2023/03/14 05:05:22;;;;;;;;;;;;;;;4.49;nan;97035.41;5034710;28;19924;-59
2023/03/14 05:08:07;;;;;;;;;;;;;;;4.48;nan;97064.16;5031768;28;19971;-59
2023/03/14 05:10:55;;;;;;;;;;;;;;;4.44;nan;97063.41;5031713;28;21515;-59
2023/03/14 05:13:34;;;;;;;;;;;;;;;4.38;nan;97070.28;5022964;28;19936;-60
2023/03/14 05:16:20;;;;;;;;;;;;;;;4.31;nan;97072.13;5028545;28;20470;-60
2023/03/14 05:18:54;;;;;;;;;;;;;;;4.21;nan;97074.84;5027531;28;20419;-58
2023/03/14 05:21:43;;;;;;;;;;;;;;;4.43;nan;97061.72;5001212;28;20012;-60
2023/03/14 05:24:38;;;;;;;;;;;;;;;4.42;nan;97039.75;4993386;28;19976;-59
2023/03/14 05:27:23;;;;;;;;;;;;;;;4.40;nan;97031.34;4984245;28;20296;-57
2023/03/14 05:30:11;;;;;;;;;;;;;;;4.50;nan;97042.97;5001770;28;19976;-58
2023/03/14 05:32:59;;;;;;;;;;;;;;;4.46;nan;97045.59;4991097;28;20581;-58
2023/03/14 05:35:48;;;;;;;;;;;;;;;4.42;nan;97057.50;5002044;28;19979;-59
2023/03/14 05:38:33;;;;;;;;;;;;;;;4.42;nan;97061.75;5002684;28;20503;-58
2023/03/14 05:41:18;;;;;;;;;;;;;;;4.41;nan;97081.19;5001039;28;19979;-58
2023/03/14 05:44:02;;;;;;;;;;;;;;;4.40;nan;97099.84;5000358;28;20411;-59
2023/03/14 05:47:00;;;;;;;;;;;;;;;4.46;nan;97102.25;4958649;28;20487;-59
2023/03/14 05:49:49;;;;;;;;;;;;;;;4.50;nan;97108.09;4998599;28;19999;-59
2023/03/14 05:52:30;;;;;;;;;;;;;;;4.47;nan;97093.78;4999205;28;19929;-59
2023/03/14 05:55:02;;;;;;;;;;;;;;;4.51;nan;97087.78;4998564;28;19980;-59
2023/03/14 05:57:48;;;;;;;;;;;;;;;4.55;nan;97094.47;4998617;28;19987;-60
2023/03/14 06:00:52;;;;;;;;;;;;;;;4.56;nan;97082.63;4957514;28;19930;-60
2023/03/14 06:03:32;;;;;;;;;;;;;;;4.78;nan;97100.78;4957941;28;19926;-60
2023/03/14 06:05:58;;;;;;;;;;;;;;;4.74;nan;97089.84;4956695;28;20702;-49
2023/03/14 06:08:24;;;;;;;;;;;;;;;4.86;nan;97111.59;4939881;28;19953;-55
2023/03/14 06:10:50;;;;;;;;;;;;;;;4.91;nan;97122.50;4925529;28;20534;-56
2023/03/14 06:13:16;;;;;;;;;;;;;;;4.89;nan;97124.22;4940279;28;19930;-58
2023/03/14 06:15:42;;;;;;;;;;;;;;;4.85;nan;97120.09;4956011;28;19926;-57
2023/03/14 06:18:07;;;;;;;;;;;;;;;4.80;nan;97117.63;4958542;28;20557;-57
2023/03/14 06:20:38;;;;;;;;;;;;;;;4.78;nan;97108.41;4958307;28;20332;-59
2023/03/14 06:23:07;;;;;;;;;;;;;;;4.72;nan;97099.19;4943496;28;20048;-58
2023/03/14 06:25:33;;;;;;;;;;;;;;;4.72;nan;97108.50;4940373;28;19922;-59
2023/03/14 06:27:59;;;;;;;;;;;;;;;4.72;nan;97116.13;4964345;28;19922;-57
2023/03/14 06:30:24;;;;;;;;;;;;;;;4.77;nan;97125.31;4979464;28;20397;-57
2023/03/14 06:32:51;;;;;;;;;;;;;;;4.83;nan;97121.84;5027906;28;19925;-55
2023/03/14 06:35:19;;;;;;;;;;;;;;;4.84;nan;97109.09;5029466;28;19929;-58
2023/03/14 06:37:44;;;;;;;;;;;;;;;5.09;nan;97099.28;5029723;28;20361;-59
2023/03/14 06:40:16;;;;;;;;;;;;;;;5.29;nan;97093.72;5045191;28;19982;-57
2023/03/14 06:43:17;;;;;;;;;;;;;;;5.48;nan;97116.13;4997534;28;20384;-57
2023/03/14 06:45:46;;;;;;;;;;;;;;;5.64;nan;97118.31;4979184;28;19955;-57
2023/03/14 06:48:12;;;;;;;;;;;;;;;5.82;nan;97115.31;4979727;28;19921;-56
2023/03/14 06:50:44;;;;;;;;;;;;;;;5.97;nan;97110.75;4976201;28;19931;-57
2023/03/14 06:53:10;;;;;;;;;;;;;;;6.13;nan;97098.44;4981056;28;19925;-56
2023/03/14 06:55:39;;;;;;;;;;;;;;;6.30;nan;97109.03;4993279;28;20464;-56
2023/03/14 06:58:07;;;;;;;;;;;;;;;6.56;nan;97113.41;4971896;28;20467;-58
2023/03/14 07:00:37;;;;;;;;;;;;;;;6.77;nan;97115.38;4995640;28;19921;-58
2023/03/14 07:03:03;;;;;;;;;;;;;;;6.89;nan;97116.72;4981231;28;19925;-60
2023/03/14 07:05:32;;;;;;;;;;;;;;;6.98;nan;97130.91;4993664;28;19936;-58
2023/03/14 07:07:58;;;;;;;;;;;;;;;7.00;nan;97134.25;4992886;28;19921;-56
2023/03/14 07:10:24;;;;;;;;;;;;;;;7.02;nan;97135.03;4992313;28;19925;-58
2023/03/14 07:12:49;;;;;;;;;;;;;;;7.04;nan;97146.88;4981012;28;20055;-58
2023/03/14 07:15:15;;;;;;;;;;;;;;;7.05;nan;97135.78;4995753;28;20412;-58
2023/03/14 07:17:41;;;;;;;;;;;;;;;7.08;nan;97138.25;5006069;28;20280;-58
2023/03/14 07:20:09;;;;;;;;;;;;;;;7.16;nan;97143.97;5025912;28;20413;-58
2023/03/14 07:22:34;;;;;;;;;;;;;;;7.23;nan;97147.16;5027657;28;19982;-57
2023/03/14 07:25:00;;;;;;;;;;;;;;;7.25;nan;97148.78;5024820;28;19928;-58
2023/03/14 07:27:26;;;;;;;;;;;;;;;7.34;nan;97148.47;5018140;28;20999;-58
2023/03/14 07:30:00;;;;;;;;;;;;;;;7.38;nan;97167.09;5028767;28;19925;-57
2023/03/14 07:32:26;;;;;;;;;;;;;;;7.43;nan;97160.13;5034759;28;19925;-58
2023/03/14 07:34:52;;;;;;;;;;;;;;;7.54;nan;97163.19;5020244;28;19924;-57
2023/03/14 07:37:18;;;;;;;;;;;;;;;7.59;nan;97165.63;5023306;28;20224;-57
2023/03/14 07:39:43;;;;;;;;;;;;;;;7.69;nan;97172.06;5024513;28;20383;-58
2023/03/14 07:42:16;;;;;;;;;;;;;;;7.81;nan;97167.44;5037321;28;20425;-58
2023/03/14 07:45:02;;;;;;;;;;;;;;;7.91;nan;97156.94;5029116;28;19925;-57
2023/03/14 07:47:28;;;;;;;;;;;;;;;7.95;nan;97153.41;5027673;28;19921;-57
2023/03/14 07:49:54;;;;;;;;;;;;;;;7.97;nan;97152.47;5027579;28;19963;-57
2023/03/14 07:52:19;;;;;;;;;;;;;;;8.07;nan;97137.69;5024560;28;19929;-57
2023/03/14 07:54:45;;;;;;;;;;;;;;;8.15;nan;97141.66;5023852;28;20553;-57
2023/03/14 07:57:10;;;;;;;;;;;;;;;8.22;nan;97147.41;5026991;28;19932;-55
2023/03/14 07:59:36;;;;;;;;;;;;;;;8.24;nan;97146.44;5024771;28;19929;-57
2023/03/14 08:02:01;;;;;;;;;;;;;;;8.24;nan;97141.34;5023027;28;19978;-58
2023/03/14 08:04:27;;;;;;;;;;;;;;;8.30;nan;97130.13;5028448;28;20453;-58
2023/03/14 08:06:54;;;;;;;;;;;;;;;8.41;nan;97124.66;5028008;28;19925;-58
2023/03/14 08:09:19;;;;;;;;;;;;;;;8.56;nan;97119.88;5027011;28;19937;-57
2023/03/14 08:11:45;;;;;;;;;;;;;;;8.78;nan;97103.75;5023126;28;20383;-58
2023/03/14 08:14:11;;;;;;;;;;;;;;;8.98;nan;97114.91;5026544;28;20269;-60
2023/03/14 08:16:36;;;;;;;;;;;;;;;9.21;nan;97105.56;5026351;28;20611;-57
2023/03/14 08:19:02;;;;;;;;;;;;;;;9.36;nan;97107.53;5027485;28;20415;-58
2023/03/14 08:21:27;;;;;;;;;;;;;;;9.45;nan;97114.84;5022201;28;20838;-57
2023/03/14 08:23:53;;;;;;;;;;;;;;;9.51;nan;97119.69;5026407;28;20391;-59
2023/03/14 08:26:18;;;;;;;;;;;;;;;9.59;nan;97122.78;5027672;28;19925;-59
2023/03/14 08:28:44;;;;;;;;;;;;;;;9.60;nan;97129.59;5027225;28;19925;-58
2023/03/14 08:31:09;;;;;;;;;;;;;;;9.56;nan;97123.75;5031046;28;20288;-58
2023/03/14 08:33:35;;;;;;;;;;;;;;;9.59;nan;97121.06;5031911;28;19964;-57
2023/03/14 08:36:00;;;;;;;;;;;;;;;9.64;nan;97120.88;5030254;28;19995;-58
2023/03/14 08:38:26;;;;;;;;;;;;;;;9.73;nan;97117.13;5027840;28;20549;-58
2023/03/14 08:40:55;;;;;;;;;;;;;;;9.79;nan;97104.94;5028478;28;20545;-59
2023/03/14 08:43:20;;;;;;;;;;;;;;;9.88;nan;97102.00;5029394;28;19921;-58
2023/03/14 08:45:46;;;;;;;;;;;;;;;10.04;nan;97105.59;5028822;28;19975;-58
2023/03/14 08:48:11;;;;;;;;;;;;;;;10.19;nan;97098.19;5028378;28;19921;-58
2023/03/14 08:50:37;;;;;;;;;;;;;;;10.41;nan;97098.97;5030574;28;19978;-59
2023/03/14 08:53:02;;;;;;;;;;;;;;;10.57;nan;97092.25;5026949;28;19987;-59
2023/03/14 08:55:28;;;;;;;;;;;;;;;10.79;nan;97092.16;5020295;28;19995;-58
2023/03/14 08:57:53;;;;;;;;;;;;;;;11.00;nan;97096.31;5028815;28;20420;-58
2023/03/14 09:00:19;;;;;;;;;;;;;;;11.28;nan;97098.47;5027195;28;20359;-63
2023/03/14 09:02:44;;;;;;;;;;;;;;;11.38;nan;97104.81;5027953;28;19921;-58
2023/03/14 09:05:11;;;;;;;;;;;;;;;11.56;nan;97096.28;5028562;28;20329;-58
2023/03/14 09:07:36;;;;;;;;;;;;;;;11.67;nan;97091.44;5027940;28;19936;-59
2023/03/14 09:10:02;;;;;;;;;;;;;;;11.85;nan;97089.75;5025369;28;20292;-59
2023/03/14 09:12:28;;;;;;;;;;;;;;;11.99;nan;97101.94;5029566;28;19920;-58
2023/03/14 09:14:53;;;;;;;;;;;;;;;12.03;nan;97100.88;5034760;28;20359;-58
2023/03/14 09:17:20;;;;;;;;;;;;;;;12.24;nan;97076.69;5027912;28;19995;-58
2023/03/14 09:19:45;;;;;;;;;;;;;;;12.52;nan;97076.94;5030303;28;19936;-58
2023/03/14 09:22:11;;;;;;;;;;;;;;;12.73;nan;97075.81;5027910;28;19921;-58
2023/03/14 09:24:36;;;;;;;;;;;;;;;12.86;nan;97078.56;5026315;28;19967;-59
2023/03/14 09:27:02;;;;;;;;;;;;;;;12.90;nan;97085.22;5029203;28;20012;-59
2023/03/14 09:29:27;;;;;;;;;;;;;;;12.91;nan;97083.47;5030515;28;19971;-59
2023/03/14 09:31:53;;;;;;;;;;;;;;;12.98;nan;97080.53;5030292;28;20413;-59
2023/03/14 09:34:18;;;;;;;;;;;;;;;13.19;nan;97071.69;5036299;28;19970;-60
2023/03/14 09:36:44;;;;;;;;;;;;;;;13.47;nan;97070.97;5026318;28;19928;-59
2023/03/14 09:39:11;;;;;;;;;;;;;;;13.75;nan;97061.72;5027749;28;20024;-58
2023/03/14 09:41:40;;;;;;;;;;;;;;;14.06;nan;97061.59;5028135;28;19929;-59
2023/03/14 09:44:20;;;;;;;;;;;;;;;14.28;nan;97062.03;5027787;28;19924;-58
2023/03/14 09:46:50;;;;;;;;;;;;;;;14.40;nan;97069.06;5029579;28;19955;-59
2023/03/14 09:49:27;;;;;;;;;;;;;;;14.68;nan;97064.84;5031537;28;20280;-58
2023/03/14 09:51:54;;;;;;;;;;;;;;;14.78;nan;97064.19;5033126;28;19928;-58
2023/03/14 09:54:38;;;;;;;;;;;;;;;15.05;nan;97066.81;5029679;28;19921;-61
2023/03/14 09:57:05;;;;;;;;;;;;;;;15.27;nan;97053.41;5028308;28;19926;-61
2023/03/14 09:59:31;;;;;;;;;;;;;;;15.45;nan;97053.06;5028247;28;19936;-58
2023/03/14 10:02:01;;;;;;;;;;;;;;;15.42;nan;97055.84;5028862;28;20102;-61
2023/03/14 10:04:28;;;;;;;;;;;;;;;15.78;nan;97055.28;5028675;28;19943;-60
2023/03/14 10:06:53;;;;;;;;;;;;;;;15.61;nan;97065.88;5028535;28;20426;-60
2023/03/14 10:09:25;;;;;;;;;;;;;;;15.64;nan;97062.25;5028158;28;19921;-59
2023/03/14 10:11:54;;;;;;;;;;;;;;;15.60;nan;97076.31;5027855;28;19943;-60
2023/03/14 10:14:34;;;;;;;;;;;;;;;15.26;nan;97075.81;5045525;28;20370;-59
2023/03/14 10:17:10;;;;;;;;;;;;;;;15.08;nan;97072.63;5030449;28;19947;-57
2023/03/14 10:19:37;;;;;;;;;;;;;;;14.95;nan;97073.47;5030534;28;19925;-60
2023/03/14 10:22:04;;;;;;;;;;;;;;;14.75;nan;97074.69;5030483;28;19916;-60
2023/03/14 10:24:33;;;;;;;;;;;;;;;14.65;nan;97083.88;5028951;28;19921;-60
2023/03/14 10:27:02;;;;;;;;;;;;;;;14.37;nan;97074.41;5029040;28;19921;-60
2023/03/14 10:29:28;;;;;;;;;;;;;;;14.27;nan;97062.94;5035512;28;20511;-59
2023/03/14 10:31:55;;;;;;;;;;;;;;;14.15;nan;97064.47;5028691;28;19928;-60
2023/03/14 10:34:22;;;;;;;;;;;;;;;14.15;nan;97054.19;5029960;28;20419;-59
2023/03/14 10:36:52;;;;;;;;;;;;;;;14.05;nan;97052.22;5029299;28;19921;-59
2023/03/14 10:39:17;;;;;;;;;;;;;;;13.94;nan;97052.84;5028832;28;19920;-59
2023/03/14 10:41:47;;;;;;;;;;;;;;;13.77;nan;97059.88;5027985;28;19927;-59
2023/03/14 10:44:12;;;;;;;;;;;;;;;13.76;nan;97056.47;5029187;28;19931;-60
2023/03/14 10:46:38;;;;;;;;;;;;;;;13.82;nan;97055.28;5029467;28;19921;-59
2023/03/14 10:49:32;;;;;;;;;;;;;;;13.90;nan;97040.22;5031404;28;19921;-59
2023/03/14 10:52:02;;;;;;;;;;;;;;;13.88;nan;97055.75;5035415;28;19921;-60
2023/03/14 10:54:29;;;;;;;;;;;;;;;13.87;nan;97048.13;5027423;28;20002;-59
2023/03/14 10:56:59;;;;;;;;;;;;;;;13.75;nan;97059.94;5029367;28;19928;-60
2023/03/14 10:59:27;;;;;;;;;;;;;;;13.72;nan;97057.56;5026225;28;20034;-60
2023/03/14 11:02:19;;;;;;;;;;;;;;;13.70;nan;97049.94;5028054;28;20007;-58
2023/03/14 11:04:54;;;;;;;;;;;;;;;13.67;nan;97065.53;5027258;28;19921;-60
2023/03/14 11:07:33;;;;;;;;;;;;;;;13.61;nan;97059.91;5028166;28;19921;-60
2023/03/14 11:10:02;;;;;;;;;;;;;;;13.56;nan;97062.75;5026969;28;20395;-59
2023/03/14 11:12:40;;;;;;;;;;;;;;;13.59;nan;97066.88;5028459;28;19928;-59
2023/03/14 11:15:13;;;;;;;;;;;;;;;13.17;nan;97080.38;5027426;28;19967;-59
2023/03/14 11:17:51;;;;;;;;;;;;;;;12.88;nan;97099.06;5026078;28;19968;-59
2023/03/14 11:20:29;;;;;;;;;;;;;;;12.44;nan;97088.50;5024400;28;19926;-58
2023/03/14 11:23:12;;;;;;;;;;;;;;;11.92;nan;97093.72;5025571;28;20265;-60
2023/03/14 11:25:54;;;;;;;;;;;;;;;11.57;nan;97092.81;5025099;28;19921;-59
2023/03/14 11:28:28;;;;;;;;;;;;;;;11.37;nan;97100.63;5024744;28;20008;-61
2023/03/14 11:31:03;;;;;;;;;;;;;;;11.25;nan;97103.72;5021563;28;20012;-60
2023/03/14 11:33:39;;;;;;;;;;;;;;;11.10;nan;97095.03;5026065;28;20086;-60
2023/03/14 11:36:05;;;;;;;;;;;;;;;10.94;nan;97107.72;5025384;28;20255;-62
2023/03/14 11:38:43;;;;;;;;;;;;;;;10.88;nan;97100.28;5026982;28;19925;-59
2023/03/14 11:41:15;;;;;;;;;;;;;;;10.85;nan;97094.47;5028458;28;20327;-59
2023/03/14 11:43:42;;;;;;;;;;;;;;;10.78;nan;97091.31;5024245;28;19928;-61
2023/03/14 11:46:21;;;;;;;;;;;;;;;10.80;nan;97071.59;5032194;28;20288;-60
2023/03/14 11:49:03;;;;;;;;;;;;;;;10.86;nan;97083.31;5024145;28;19920;-61
2023/03/14 11:51:32;;;;;;;;;;;;;;;11.03;nan;97075.69;5027513;28;19927;-60
2023/03/14 11:54:12;;;;;;;;;;;;;;;11.16;nan;97069.06;5026963;28;19921;-60
2023/03/14 11:56:42;;;;;;;;;;;;;;;11.41;nan;97064.44;5027167;28;20323;-61
2023/03/14 11:59:14;;;;;;;;;;;;;;;11.49;nan;97076.94;5027523;28;20357;-62
2023/03/14 12:01:50;;;;;;;;;;;;;;;11.45;nan;97062.59;5027595;28;20349;-62
2023/03/14 12:04:38;;;;;;;;;;;;;;;11.49;nan;97076.09;5041200;28;20038;-62
2023/03/14 12:07:13;;;;;;;;;;;;;;;11.49;nan;97076.94;5026481;28;19986;-61
2023/03/14 12:09:38;;;;;;;;;;;;;;;11.48;nan;97074.44;5030865;28;20082;-60
2023/03/14 12:12:05;;;;;;;;;;;;;;;11.53;nan;97073.31;5029013;28;19924;-61
2023/03/14 12:14:33;;;;;;;;;;;;;;;11.39;nan;97066.28;5030270;28;19927;-60
2023/03/14 12:17:04;;;;;;;;;;;;;;;11.59;nan;97067.03;5028100;28;20006;-61
2023/03/14 12:19:31;;;;;;;;;;;;;;;11.64;nan;97071.06;5032409;28;20606;-62
2023/03/14 12:21:56;;;;;;;;;;;;;;;11.68;nan;97061.47;5029721;28;19921;-61
2023/03/14 12:24:27;;;;;;;;;;;;;;;11.56;nan;97067.19;5030321;28;20438;-64
2023/03/14 12:26:54;;;;;;;;;;;;;;;11.63;nan;97083.97;5029307;28;19920;-61
2023/03/14 12:29:20;;;;;;;;;;;;;;;11.54;nan;97075.00;5033659;28;20178;-61
2023/03/14 12:31:47;;;;;;;;;;;;;;;11.39;nan;97081.66;5030205;28;20111;-60
2023/03/14 12:34:12;;;;;;;;;;;;;;;11.38;nan;97074.88;5031359;28;20051;-60
2023/03/14 12:36:48;;;;;;;;;;;;;;;11.36;nan;97057.91;5016106;28;20455;-60
2023/03/14 12:39:20;;;;;;;;;;;;;;;11.47;nan;97058.22;5030851;28;20290;-61
2023/03/14 12:41:51;;;;;;;;;;;;;;;11.41;nan;97069.59;5030451;28;19925;-61
2023/03/14 12:44:28;;;;;;;;;;;;;;;11.38;nan;97056.91;5027725;28;19925;-61
2023/03/14 12:46:54;;;;;;;;;;;;;;;11.33;nan;97063.97;5028502;28;20371;-60
2023/03/14 12:49:20;;;;;;;;;;;;;;;11.35;nan;97063.91;5031810;28;19944;-61
2023/03/14 12:51:45;;;;;;;;;;;;;;;11.23;nan;97064.50;5030718;28;20388;-60
2023/03/14 12:54:29;;;;;;;;;;;;;;;11.39;nan;97066.28;5030716;28;19931;-61
2023/03/14 12:57:04;;;;;;;;;;;;;;;11.43;nan;97046.44;5029160;28;19920;-61
2023/03/14 12:59:37;;;;;;;;;;;;;;;11.44;nan;97042.97;5030586;28;19928;-60
2023/03/14 13:02:06;;;;;;;;;;;;;;;11.40;nan;97044.00;5035664;28;19929;-62
2023/03/14 13:04:35;;;;;;;;;;;;;;;11.40;nan;97051.72;5031608;28;19921;-60
2023/03/14 13:07:01;;;;;;;;;;;;;;;11.36;nan;97045.06;5030556;28;20310;-60
2023/03/14 13:09:32;;;;;;;;;;;;;;;11.46;nan;97043.69;5030400;28;19932;-61
2023/03/14 13:12:02;;;;;;;;;;;;;;;11.49;nan;97048.72;5030199;28;20043;-61
2023/03/14 13:14:29;;;;;;;;;;;;;;;11.57;nan;97038.91;5030757;28;19927;-61
2023/03/14 13:16:54;;;;;;;;;;;;;;;11.53;nan;97034.81;5029699;28;19921;-63
2023/03/14 13:19:23;;;;;;;;;;;;;;;11.63;nan;97032.63;5030119;28;19925;-62
2023/03/14 13:21:50;;;;;;;;;;;;;;;11.56;nan;97042.38;5034419;28;19979;-61
2023/03/14 13:24:23;;;;;;;;;;;;;;;11.51;nan;97052.03;5029187;28;20485;-61
2023/03/14 13:26:49;;;;;;;;;;;;;;;11.51;nan;97053.75;5044203;28;20326;-61
2023/03/14 13:29:17;;;;;;;;;;;;;;;11.46;nan;97051.41;5029876;28;19924;-61